Lehigh, Oklahoma
Current Conditions -  °F | °C
As of 1:15 PM on Tuesday 21 Oct 2014 (Local Time) from KAQR Reporting Station
Clear Clear  
Wind Chill: 79°   Ceiling: Unl
Heat Index: 80°   Visibility: 7mi
Dew Point: 59°   Wind: 3mph
Humidity: 51%   Direction: 170°S
Pressure: 30.09"   Gusts: NA
Location:  34.47°N, 96.22°W
Report Text: KAQR 211815Z AUTO 17003KT 7SM CLR 26/15 A3009 RMK AO2
Loading
Personal Weather Stations






























Interactive Weather Map
Tropical Storm Tracking
New forecast layout! Learn more

10-Day Weather Forecast

Advertisements
Track Severe Weather on mobile